Blue Hill Meteorological Observatory

42° 12' 44"N, 71° 06' 53"W, Elevation 635 ft.
Eastern Time

Hourly observations for the last 72 hours

Date Time Temperature (°F) Humi-
dity

(%)
Wind
(mph)
Pressure Rain (in) Sun
(W/m2)
ET
(in)
Air Dew 6 Hour 1 Hr 3 Hr 6 Hr Day
Alt
(in)
Sea
Level

(mb)
Max Min
20 21:00 51.9 48.5 88 ESE 7 G 8 30.05 1017.8 0.00 0 0.079
20 20:00 52.5 49.4 89 ESE 6 G 8 30.07 1018.5 0.00 0 0.078
20 19:00 52.3 48.9 59.5 52.2 88 ENE 6 G 8 30.07 1018.3 0.00 0 0.077
20 18:00 52.3 48.9 88 E 8 G 10 30.06 1017.9 0.00 0 0.076
20 17:00 52.7 48.3 85 E 9 G 11 30.05 1017.8 0.00 0 0.075
20 16:00 54.1 48.4 81 ENE 6 G 9 30.08 1018.6 0.00 32 0.073
20 15:00 56.4 48.6 75 ENE 5 G 7 30.07 1018.5 0.00 105 0.069
20 14:00 58.7 48.6 69 NE 3 G 6 30.08 1018.6 0.00 207 0.063
20 13:00 59.1 42.5 59.7 46.7 54 SW 4 G 9 30.09 1018.9 0.00 271 0.054
20 12:00 59.3 44.5 58 SSE 4 G 10 30.09 1019.0 0.00 506 0.043
20 11:00 57.4 46.1 66 SSE 6 G 9 30.10 1019.4 0.00 485 0.030
20 10:00 52.4 45.4 77 ESE 2 G 7 30.11 1019.8 0.00 350 0.023
20 09:00 51.9 45.3 78 ESE 7 G 10 30.11 1019.7 0.00 199 0.017
20 08:00 48.7 43.1 81 E 7 G 11 30.10 1019.2 0.00 146 0.013
20 07:00 46.7 42.1 46.7 43.4 84 ENE 9 G 12 30.08 1018.5 0.00 174 0.011
20 06:00 44.5 40.0 84 NE 9 G 11 30.08 1018.8 0.00 0 0.010
20 05:00 43.6 36.9 77 NE 10 G 12 30.07 1018.4 0.00 0 0.008
20 04:00 44.9 36.4 72 NE 8 G 10 30.07 1018.3 0.00 0 0.006
20 03:00 45.0 36.2 71 NE 5 G 6 30.08 1018.8 0.00 0 0.004
20 02:00 46.1 36.9 70 NE 10 G 13 30.07 1018.2 0.00 0 0.002
20 01:00 45.4 36.9 49.6 45.3 72 NE 11 G 13 30.07 1018.2 0.00 0 0.000
20 00:00 45.8 36.9 71 N 10 G 11 30.07 1018.2 0.00 0 0.113
19 23:00 46.7 37.1 69 NNW 6 G 9 30.07 1018.4 0.00 0 0.111
19 22:00 46.8 37.2 69 WNW 7 G 9 30.07 1018.2 0.00 0 0.109
19 21:00 47.2 36.8 67 WNW 9 G 10 30.06 1018.0 0.00 0 0.107
19 20:00 47.6 37.2 67 W 9 G 12 30.04 1017.4 0.00 0 0.105
19 19:00 49.6 37.9 57.7 49.6 64 W 10 G 12 30.04 1017.3 0.00 0 0.102
19 18:00 51.5 38.1 60 WSW 6 G 11 30.03 1016.9 0.00 0 0.100
19 17:00 53.1 38.3 57 WSW 6 G 9 30.01 1016.4 0.00 0 0.097
19 16:00 56.9 39.5 52 W 8 G 13 30.00 1016.1 0.00 109 0.090
19 15:00 57.6 39.6 51 W 10 G 12 30.01 1016.3 0.00 278 0.080
19 14:00 57.1 40.1 53 W 9 G 14 30.00 1016.1 0.00 427 0.068
19 13:00 55.4 40.0 55.4 37.2 56 W 9 G 13 30.00 1016.1 0.00 538 0.055
19 12:00 53.8 39.8 59 NW 5 G 12 30.02 1016.6 0.00 596 0.042
19 11:00 51.7 38.7 61 WNW 9 G 15 30.03 1016.9 0.00 598 0.029
19 10:00 50.1 39.2 66 NW 9 G 14 30.03 1016.9 0.00 543 0.018
19 09:00 46.8 37.9 71 NW 10 G 15 30.03 1017.0 0.00 438 0.010
19 08:00 42.0 37.5 84 WNW 11 G 15 30.02 1016.5 0.00 285 0.006
19 07:00 37.2 34.8 39.3 35.6 91 WNW 12 G 16 30.00 1016.0 0.00 130 0.005
19 06:00 35.7 33.3 91 W 10 G 14 29.99 1015.7 0.00 0 0.005
19 05:00 36.1 34.0 92 WNW 11 G 14 29.98 1015.2 0.00 0 0.004
19 04:00 36.8 34.4 91 WNW 13 G 16 29.98 1015.2 0.00 0 0.003
19 03:00 37.1 34.7 91 W 11 G 15 29.97 1014.8 0.00 0 0.002
19 02:00 38.1 35.4 90 W 13 G 16 29.96 1014.7 0.00 0 0.001
19 01:00 39.3 36.0 46.4 39.2 88 W 11 G 16 29.96 1014.7 0.00 0 0.000
19 00:00 39.7 36.4 88 W 10 G 14 29.94 1014.1 0.00 0 0.097
18 23:00 40.7 37.1 87 W 10 G 15 29.93 1013.6 0.00 0 0.096
18 22:00 42.5 37.4 82 WNW 9 G 12 29.93 1013.5 0.00 0 0.095
18 21:00 44.4 38.0 78 NW 13 G 21 29.92 1013.1 0.00 0 0.093
18 20:00 45.8 38.3 75 NW 14 G 22 29.90 1012.5 0.00 0 0.091
18 19:00 46.3 38.8 56.4 46.3 75 NW 9 G 18 29.86 1011.4 0.00 0 0.089
18 18:00 48.0 39.1 71 WNW 11 G 17 29.85 1010.8 0.00 0 0.086
18 17:00 50.7 39.8 66 WNW 12 G 23 29.81 1009.6 0.00 0 0.082
18 16:00 53.4 40.7 62 WNW 15 G 26 29.79 1008.7 0.00 30 0.074
18 15:00 56.2 42.5 60 WNW 16 G 28 29.76 1007.8 0.00 279 0.064
18 14:00 54.2 42.3 64 WNW 16 G 24 29.74 1007.3 0.00 148 0.056
18 13:00 54.2 42.7 54.3 47.4 65 WNW 15 G 25 29.74 1007.0 0.00 206 0.047
18 12:00 53.7 42.6 66 WNW 19 G 27 29.73 1006.8 0.00 246 0.038
18 11:00 52.7 43.2 70 NW 14 G 28 29.72 1006.6 0.00 223 0.030
18 10:00 52.5 43.0 70 WNW 17 G 29 29.71 1006.2 0.00 322 0.021
18 09:00 50.1 42.8 76 W 19 G 28 29.70 1005.7 0.00 176 0.016
18 08:00 48.7 42.5 79 W 15 G 22 29.67 1004.8 0.00 158 0.013
18 07:00 47.4 42.2 47.4 44.6 82 W 14 G 19 29.65 1004.0 0.00 155 0.011
18 06:00 45.6 41.4 85 W 17 G 25 29.60 1002.4 0.00 0 0.010
18 05:00 45.0 40.8 85 W 17 G 29 29.57 1001.4 0.00 0 0.008
18 04:00 45.5 40.6 83 W 19 G 28 29.54 1000.4 0.00 0 0.006
18 03:00 45.5 40.6 83 W 15 G 27 29.51 999.4 0.00 0 0.004
18 02:00 45.6 40.4 82 W 16 G 21 29.49 998.8 0.00 0 0.002
18 01:00 46.7 40.5 48.7 46.5 79 W 17 G 26 29.47 998.1 0.00 0 0.000
18 00:00 47.3 41.1 79 W 14 G 23 29.45 997.5 0.79 0 0.087
17 23:00 48.0 41.1 77 W 18 G 27 29.42 996.2 0.78 0 0.084
17 22:00 48.6 41.4 76 W 14 G 23 29.39 995.3 0.78 0 0.081

Data generated by WxSolution Version 1.9.1.5, Build 2018.05.20.